Flight Track Log - Related Links

Times and Time Zones

All times are in EDT time to prevent confusion due to time zone crossing. See the N728QS flight status page for this flight to view local times or setup timezone preferences in your user account.

Time Position Orientation Groundspeed Altitude Reporting Facility
EDT Latitude Longitude Course Direction KTS MPH feet Rate Location/Type
Mon 01:27:21 PM 26.1978 -80.1564 75° East 193 222 600  Level Miami Center
Mon 01:27:53 PM 26.2069 -80.1172 73° East 205 236 1,400 1,800 Climbing Miami Center
Mon 01:28:41 PM 26.2183 -80.0758 343° North 213 245 3,000 2,500 Climbing Miami Center
Mon 01:29:53 PM 26.2867 -80.0986 305° West 255 293 6,400 3,318 Climbing Miami Center
Mon 01:30:53 PM 26.3292 -80.1669 328° Northwest 260 299 10,300 3,100 Climbing Miami Center
Mon 01:31:53 PM 26.3950 -80.2128 341° North 288 331 12,600 2,550 Climbing Miami Center
Mon 01:32:53 PM 26.5006 -80.2528 342° North 325 374 15,400 2,650 Climbing Miami Center
Mon 01:33:53 PM 26.5894 -80.2856 341° North 372 428 17,900 2,600 Climbing Miami Center
Mon 01:34:53 PM 26.7014 -80.3283 340° North 386 444 20,600 2,250 Climbing Miami Center
Mon 01:35:53 PM 26.7983 -80.3686 341° North 394 453 22,400 1,900 Climbing Miami Center
Mon 01:36:53 PM 26.9061 -80.4114 342° North 401 461 24,400 1,850 Climbing Miami Center
Mon 01:37:53 PM 27.0178 -80.4519 340° North 411 473 26,100 1,650 Climbing Miami Center
Mon 01:38:53 PM 27.1294 -80.4975 341° North 421 484 27,700 1,550 Climbing Miami Center
Mon 01:39:53 PM 27.2453 -80.5431 342° North 427 491 29,200 1,450 Climbing Miami Center
Mon 01:40:53 PM 27.3650 -80.5867 341° North 439 505 30,600 1,400 Climbing Miami Center
Mon 01:41:53 PM 27.4831 -80.6328 341° North 445 512 32,000 1,300 Climbing Miami Center
Mon 01:42:53 PM 27.6008 -80.6789 341° North 445 512 33,200 950 Climbing Miami Center
Mon 01:43:53 PM 27.7164 -80.7247 341° North 440 506 33,900 650 Climbing Miami Center
Mon 01:44:53 PM 27.8342 -80.7711 342° North 440 506 34,500 650 Climbing Miami Center
Mon 01:45:53 PM 27.9642 -80.8203 340° North 445 512 35,200 650 Climbing Miami Center
Mon 01:46:53 PM 28.0797 -80.8667 342° North 439 505 35,800 750 Climbing Miami Center
Mon 01:47:53 PM 28.1997 -80.9108 340° North 444 511 36,700 600 Climbing Miami Center
Mon 01:48:53 PM 28.3172 -80.9600 340° North 444 511 37,000 150 Climbing Miami Center
Mon 01:49:53 PM 28.4389 -81.0092 340° North 444 511 37,000  Level Miami Center
Mon 01:50:53 PM 28.5544 -81.0561 341° North 444 511 37,000  Level Miami Center
Mon 01:51:53 PM 28.6719 -81.1031 346° North 444 511 37,000  Level Miami Center
Mon 01:52:51 PM 28.7911 -81.1372 349° North 444 511 37,000  Level Jacksonville Center
Mon 01:53:51 PM 28.9167 -81.1658 347° North 439 505 37,000  Level Jacksonville Center
Mon 01:54:51 PM 29.0383 -81.1992 349° North 450 518 37,000  Level Jacksonville Center
Mon 01:55:51 PM 29.1514 -81.2233 349° North 450 518 37,000  Level Jacksonville Center
Mon 01:56:51 PM 29.2769 -81.2522 347° North 450 518 37,000  Level Jacksonville Center
Mon 01:57:51 PM 29.4047 -81.2858 348° North 450 518 37,000  Level Jacksonville Center
Mon 01:58:51 PM 29.5408 -81.3194 348° North 450 518 37,000  Level Jacksonville Center
Mon 01:59:51 PM 29.6683 -81.3508 350° North 455 524 37,000 200 Level Jacksonville Center
Mon 02:00:51 PM 29.7942 -81.3775 352° North 455 524 37,400 500 Climbing Jacksonville Center
Mon 02:01:51 PM 29.9236 -81.3972 North 455 524 38,000 700 Climbing Jacksonville Center
Mon 02:02:51 PM 30.0550 -81.3856 North 455 524 38,800 500 Climbing Jacksonville Center
Mon 02:03:51 PM 30.1844 -81.3739 North 460 529 39,000 100 Climbing Jacksonville Center
Mon 02:04:51 PM 30.3178 -81.3622 North 460 529 39,000  Level Jacksonville Center
Mon 02:05:51 PM 30.4472 -81.3528 North 465 535 39,000  Level Jacksonville Center
Mon 02:06:51 PM 30.5806 -81.3361 North 465 535 39,000  Level Jacksonville Center
Mon 02:07:51 PM 30.7119 -81.3269 358° North 470 541 39,000 -50 Level Jacksonville Center
Mon 02:08:51 PM 30.8394 -81.3319 343° North 463 533 38,900 -50 Descending Jacksonville Center
Mon 02:09:51 PM 30.9569 -81.3736 349° North 443 510 38,900 50 Level Jacksonville Center
Mon 02:10:51 PM 31.0847 -81.4031 350° North 448 516 39,000 50 Climbing Jacksonville Center
Mon 02:11:51 PM 31.2103 -81.4278 North 447 514 39,000  Level Jacksonville Center
Mon 02:12:51 PM 31.3394 -81.4208 North 463 533 39,000  Level Jacksonville Center
Mon 02:13:51 PM 31.4667 -81.3969 10° North 467 537 39,000  Level Jacksonville Center
Mon 02:14:51 PM 31.5853 -81.3731 11° North 473 544 39,000  Level Jacksonville Center
Mon 02:15:51 PM 31.7289 -81.3392 North 473 544 39,000  Level Jacksonville Center
Mon 02:16:51 PM 31.8603 -81.3197 North 467 537 39,000  Level Jacksonville Center
Mon 02:17:51 PM 31.9792 -81.3056 North 467 537 39,000  Level Jacksonville Center
Mon 02:18:51 PM 32.1106 -81.2861 North 472 543 39,000  Level Jacksonville Center
Mon 02:19:51 PM 32.2439 -81.2714 North 477 549 39,000  Level Jacksonville Center
Mon 02:20:51 PM 32.3753 -81.2544 North 477 549 39,000  Level Jacksonville Center
Mon 02:21:51 PM 32.5189 -81.2369 North 482 555 39,000  Level Jacksonville Center
Mon 02:22:51 PM 32.6525 -81.2319 North 471 542 39,000  Level Jacksonville Center
Mon 02:23:51 PM 32.7692 -81.2225 14° North 466 536 39,000  Level Jacksonville Center
Mon 02:24:51 PM 32.9003 -81.1831 North 466 536 39,000  Level Jacksonville Center
Mon 02:25:51 PM 33.0297 -81.1806 355° North 466 536 39,000  Level Jacksonville Center
Mon 02:26:51 PM 33.1633 -81.1953 355° North 466 536 39,000  Level Jacksonville Center
Mon 02:27:51 PM 33.3056 -81.2100 356° North 466 536 39,000  Level Jacksonville Center
Mon 02:28:51 PM 33.4392 -81.2200 355° North 466 536 39,000  Level Jacksonville Center
Mon 02:29:51 PM 33.5750 -81.2347 356° North 477 549 39,000  Level Jacksonville Center
Mon 02:30:51 PM 33.7089 -81.2472 355° North 483 556 39,000  Level Jacksonville Center
Mon 02:31:51 PM 33.8281 -81.2600 355° North 477 549 39,000  Level Jacksonville Center
Mon 02:34:40 PM 34.2019 -81.3011 355° North 479 551 39,000  Level Atlanta Center
Mon 02:35:40 PM 34.3525 -81.3164 354° North 496 571 39,000  Level Atlanta Center
Mon 02:36:40 PM 34.4867 -81.3347 355° North 488 562 39,000 250 Level Atlanta Center
Mon 02:37:40 PM 34.6206 -81.3481 355° North 474 545 39,500 500 Climbing Atlanta Center
Mon 02:38:40 PM 34.7397 -81.3619 353° North 474 545 40,000 250 Climbing Atlanta Center
Mon 02:39:40 PM 34.8736 -81.3806 355° North 481 554 40,000  Level Atlanta Center
Mon 02:40:40 PM 35.0200 -81.3961 355° North 487 560 40,000  Level Atlanta Center
Mon 02:41:40 PM 35.1561 -81.4119 354° North 487 560 40,000  Level Atlanta Center
Mon 02:42:40 PM 35.2900 -81.4281 355° North 487 560 40,000  Level Atlanta Center
Mon 02:43:40 PM 35.4281 -81.4442 354° North 482 555 40,000  Level Atlanta Center
Mon 02:44:41 PM 35.5639 -81.4603 356° North 488 562 40,000  Level Atlanta Center
Mon 02:45:40 PM 35.6894 -81.4717 355° North 494 568 40,000  Level Atlanta Center
Mon 02:46:40 PM 35.8253 -81.4878 356° North 494 568 40,000  Level Atlanta Center
Mon 02:47:40 PM 35.9611 -81.4989 355° North 494 568 40,000  Level Atlanta Center
Mon 02:48:40 PM 36.0992 -81.5153 354° North 494 568 40,000  Level Atlanta Center
Mon 02:49:40 PM 36.2350 -81.5317 355° North 494 568 40,000  Level Atlanta Center
Mon 02:50:40 PM 36.3856 -81.5475 356° North 489 563 40,000  Level Atlanta Center
Mon 02:51:40 PM 36.5256 -81.5611 354° North 494 568 40,000  Level Atlanta Center
Mon 02:52:40 PM 36.6592 -81.5778 354° North 494 568 40,000  Level Atlanta Center
Mon 02:54:19 PM 36.8731 -81.6047 355° North 479 551 40,000  Level Indianapolis Center
Mon 02:55:31 PM 37.0528 -81.6236 354° North 491 565 40,000  Level Indianapolis Center
Mon 02:56:31 PM 37.1886 -81.6408 355° North 496 571 40,000  Level Indianapolis Center
Mon 02:57:31 PM 37.3267 -81.6556 354° North 502 578 40,000  Level Indianapolis Center
Mon 02:58:31 PM 37.4647 -81.6731 354° North 502 578 40,000  Level Indianapolis Center
Mon 02:59:31 PM 37.6006 -81.6906 354° North 502 578 40,000  Level Indianapolis Center
Mon 03:00:31 PM 37.7364 -81.7081 355° North 502 578 40,000  Level Indianapolis Center
Mon 03:01:31 PM 37.8658 -81.7233 354° North 485 558 40,000  Level Indianapolis Center
Mon 03:02:31 PM 38.0039 -81.7411 354° North 485 558 40,000  Level Indianapolis Center
Mon 03:03:31 PM 38.1417 -81.7586 355° North 490 564 40,000  Level Indianapolis Center
Mon 03:04:31 PM 38.2775 -81.7739 354° North 490 564 40,000  Level Indianapolis Center
Mon 03:05:31 PM 38.4156 -81.7917 354° North 490 564 40,000  Level Indianapolis Center
Mon 03:06:31 PM 38.5533 -81.8097 354° North 495 570 40,000  Level Indianapolis Center
Mon 03:07:31 PM 38.6789 -81.8253 354° North 495 570 40,000  Level Indianapolis Center
Mon 03:08:31 PM 38.8189 -81.8433 356° North 501 577 40,000  Level Indianapolis Center
Mon 03:09:31 PM 38.9525 -81.8561 355° North 501 577 40,000  Level Indianapolis Center
Mon 03:10:31 PM 39.0861 -81.8717 354° North 495 570 40,000  Level Indianapolis Center
Mon 03:11:31 PM 39.2261 -81.8897 355° North 495 570 40,000  Level Indianapolis Center
Mon 03:12:31 PM 39.3578 -81.9056 355° North 490 564 40,000  Level Indianapolis Center
Mon 03:13:31 PM 39.4914 -81.9211 354° North 484 557 40,000  Level Indianapolis Center
Mon 03:14:31 PM 39.6250 -81.9397 355° North 484 557 40,000  Level Indianapolis Center
Mon 03:15:31 PM 39.7567 -81.9556 355° North 477 549 40,000  Level Indianapolis Center
Mon 03:16:31 PM 39.8922 -81.9714 354° North 484 557 40,000  Level Indianapolis Center
Mon 03:18:12 PM 40.1186 -82.0003 355° North 482 555 40,000  Level Cleveland Center
Mon 03:19:12 PM 40.2561 -82.0167 354° North 482 555 40,000  Level Cleveland Center
Mon 03:20:12 PM 40.3914 -82.0361 355° North 482 555 40,000  Level Cleveland Center
Mon 03:21:12 PM 40.5289 -82.0528 354° North 493 567 40,000  Level Cleveland Center
Mon 03:22:12 PM 40.6661 -82.0722 355° North 499 574 40,000  Level Cleveland Center
Mon 03:23:12 PM 40.8036 -82.0892 354° North 499 574 40,000  Level Cleveland Center
Mon 03:24:12 PM 40.9533 -82.1089 354° North 499 574 40,000  Level Cleveland Center
Mon 03:25:12 PM 41.0906 -82.1286 355° North 499 574 40,000  Level Cleveland Center
Mon 03:26:12 PM 41.2300 -82.1458 345° North 499 574 40,000  Level Cleveland Center
Mon 03:27:12 PM 41.3608 -82.1933 345° North 499 574 40,000  Level Cleveland Center
Mon 03:28:12 PM 41.4914 -82.2408 344° North 494 568 40,000  Level Cleveland Center
Mon 03:29:12 PM 41.6117 -82.2883 344° North 482 555 40,000  Level Cleveland Center
Mon 03:30:12 PM 41.7361 -82.3361 345° North 470 541 40,000  Level Cleveland Center
Mon 03:31:12 PM 41.8667 -82.3844 343° North 478 550 40,000  Level Cleveland Center
Mon 03:32:12 PM 41.9969 -82.4383 344° North 478 550 40,000  Level Cleveland Center
Mon 03:33:12 PM 42.1233 -82.4869 344° North 478 550 40,000  Level Cleveland Center
Mon 03:34:12 PM 42.2478 -82.5353 344° North 472 543 40,000  Level Cleveland Center
Mon 03:35:12 PM 42.3886 -82.5903 342° North 472 543 40,000  Level Cleveland Center
Mon 03:36:12 PM 42.5147 -82.6450 344° North 472 543 40,000  Level Cleveland Center
Mon 03:37:12 PM 42.6389 -82.6944 344° North 472 543 40,000  Level Cleveland Center
Mon 03:38:12 PM 42.7650 -82.7439 343° North 467 537 40,000  Level Cleveland Center
Mon 03:39:12 PM 42.8911 -82.7964 345° North 467 537 40,000  Level Cleveland Center
Mon 03:40:12 PM 43.0153 -82.8433 343° North 472 543 40,000  Level Cleveland Center
Mon 03:41:12 PM 43.1414 -82.8964 344° North 472 543 40,000  Level Cleveland Center
Mon 03:42:12 PM 43.2675 -82.9467 342° North 472 543 40,000  Level Cleveland Center
Mon 03:43:12 PM 43.3914 -83.0031 344° North 467 537 40,000  Level Cleveland Center
Mon 03:44:12 PM 43.5153 -83.0536 346° North 467 537 40,000  Level Cleveland Center
Mon 03:45:44 PM 43.7000 -83.1167 345° North 470 541 40,000  Level Toronto Center
Mon 03:46:44 PM 43.8333 -83.1667 343° North 470 541 40,000  Level Toronto Center
Mon 03:47:44 PM 43.9500 -83.2167 338° Northwest 470 541 40,000  Level Toronto Center
Mon 03:48:44 PM 44.0667 -83.2833 332° Northwest 470 541 40,000  Level Toronto Center
Mon 03:49:31 PM 44.1464 -83.3436 317° Northwest 459 528 40,000  Level Minneapolis Center
Mon 03:50:30 PM 44.2364 -83.4617 316° Northwest 451 519 40,000  Level Minneapolis Center
Mon 03:51:31 PM 44.3292 -83.5853 320° Northwest 451 519 40,000  Level Minneapolis Center
Mon 03:52:30 PM 44.4294 -83.7053 317° Northwest 464 534 40,000  Level Minneapolis Center
Mon 03:53:30 PM 44.5214 -83.8239 318° Northwest 464 534 40,000  Level Minneapolis Center
Mon 03:54:30 PM 44.6150 -83.9428 317° Northwest 464 534 40,000  Level Minneapolis Center
Mon 03:55:31 PM 44.7067 -84.0622 317° Northwest 459 528 40,000  Level Minneapolis Center
Mon 03:56:31 PM 44.8006 -84.1847 318° Northwest 459 528 40,000  Level Minneapolis Center
Mon 03:57:31 PM 44.8917 -84.3022 318° Northwest 454 522 40,000  Level Minneapolis Center
Mon 03:58:31 PM 44.9828 -84.4200 317° Northwest 454 522 40,000  Level Minneapolis Center
Mon 03:59:30 PM 45.0714 -84.5356 318° Northwest 454 522 40,000  Level Minneapolis Center
Mon 04:00:30 PM 45.1692 -84.6619 317° Northwest 449 517 40,000  Level Minneapolis Center
Mon 04:01:30 PM 45.2578 -84.7811 317° Northwest 444 511 40,000  Level Minneapolis Center
Mon 04:02:31 PM 45.3461 -84.8978 316° Northwest 444 511 40,000  Level Minneapolis Center
Mon 04:03:31 PM 45.4325 -85.0183 317° Northwest 444 511 40,000  Level Minneapolis Center
Mon 04:04:31 PM 45.5250 -85.1408 317° Northwest 449 517 40,000  Level Minneapolis Center
Mon 04:05:31 PM 45.6153 -85.2614 316° Northwest 449 517 40,000  Level Minneapolis Center
Mon 04:06:31 PM 45.7033 -85.3825 318° Northwest 449 517 40,000  Level Minneapolis Center
Mon 04:07:30 PM 45.7933 -85.5008 316° Northwest 449 517 40,000  Level Minneapolis Center
Mon 04:08:30 PM 45.8811 -85.6228 316° Northwest 449 517 40,000  Level Minneapolis Center
Mon 04:09:31 PM 45.9711 -85.7478 316° Northwest 454 522 40,000  Level Minneapolis Center
Mon 04:10:31 PM 46.0564 -85.8678 316° Northwest 449 517 40,000  Level Minneapolis Center
Mon 04:11:31 PM 46.1436 -85.9881 316° Northwest 449 517 40,000  Level Minneapolis Center
Mon 04:12:31 PM 46.2289 -86.1086 314° West 444 511 40,000  Level Minneapolis Center
Mon 04:13:31 PM 46.3072 -86.2247 315° West 443 510 40,000  Level Minneapolis Center
Mon 04:14:31 PM 46.3992 -86.3603 317° Northwest 443 510 40,000  Level Minneapolis Center
Mon 04:15:31 PM 46.4767 -86.4650 317° Northwest 438 504 40,000 -500 Level Minneapolis Center
Mon 04:16:31 PM 46.5722 -86.5950 316° Northwest 433 498 39,000 -1,150 Descending Minneapolis Center
Mon 04:17:31 PM 46.6542 -86.7119 314° West 423 487 37,700 -1,412 Descending Minneapolis Center
Mon 04:18:30 PM 46.7389 -86.8381 314° West 423 487 36,200 -1,500 Descending Minneapolis Center
Mon 04:19:31 PM 46.8211 -86.9617 316° Northwest 429 494 34,700 -1,488 Descending Minneapolis Center
Mon 04:20:31 PM 46.8914 -87.0628 316° Northwest 418 481 33,200 -1,750 Descending Minneapolis Center
Mon 04:21:31 PM 46.9797 -87.1894 315° West 424 488 31,200 -2,017 Descending Minneapolis Center
Mon 04:22:30 PM 47.0614 -87.3111 314° West 429 494 29,200 -2,100 Descending Minneapolis Center
Mon 04:23:31 PM 47.1497 -87.4447 336° Northwest 422 486 27,000 -2,129 Descending Minneapolis Center
Mon 04:24:03 PM 47.1833 -87.4667 310° West 420 483 25,900 -2,022 Descending Winnipeg Center
Mon 04:25:03 PM 47.2500 -87.5833 313° West 420 483 23,900 -2,050 Descending Winnipeg Center
Mon 04:26:03 PM 47.3333 -87.7167 310° West 410 472 21,800 -2,079 Descending Winnipeg Center
Mon 04:26:44 PM 47.4000 -87.8333 302° West 410 472 20,400 -1,901 Descending Toronto Center
Mon 04:27:44 PM 47.4500 -87.9500 322° Northwest 390 449 18,600 -2,000 Descending Toronto Center
Mon 04:28:44 PM 47.5500 -88.0667 323° Northwest 370 426 16,400 -1,907 Descending Toronto Center
Mon 04:29:31 PM 47.6022 -88.1242 310° West 371 427 15,200 -1,975 Descending Minneapolis Center
Mon 04:30:03 PM 47.6167 -88.1500 321° Northwest 360 414 13,800 -2,283 Descending Winnipeg Center
Mon 04:31:03 PM 47.7000 -88.2500 307° West 320 368 11,700 -1,800 Descending Winnipeg Center
Mon 04:32:03 PM 47.7333 -88.3167 312° West 280 322 10,200 -1,550 Descending Winnipeg Center
Mon 04:33:03 PM 47.7833 -88.4000 326° Northwest 260 299 8,600 -1,500 Descending Winnipeg Center
Mon 04:34:03 PM 47.8500 -88.4667 318° Northwest 260 299 7,200 -1,500 Descending Winnipeg Center
Mon 04:35:03 PM 47.9000 -88.5333 326° Northwest 260 299 5,600 -1,100 Descending Winnipeg Center
Mon 04:36:03 PM 47.9667 -88.6000 342° North 260 299 5,000 -300 Descending Winnipeg Center
Mon 04:37:03 PM 48.0333 -88.6333 342° North 270 311 5,000  Level Winnipeg Center
Mon 04:38:03 PM 48.1000 -88.6667 333° Northwest 270 311 5,000  Level Winnipeg Center
Mon 04:39:03 PM 48.1667 -88.7167 342° North 260 299 5,000 -400 Level Winnipeg Center
Mon 04:40:03 PM 48.2333 -88.7500 326° Northwest 250 288 4,200 -500 Descending Winnipeg Center
Mon 04:41:03 PM 48.2833 -88.8000 318° Northwest 220 253 4,000 -100 Descending Winnipeg Center
Mon 04:42:03 PM 48.3333 -88.8667 291° West 210 242 4,000 -300 Level Winnipeg Center
Mon 04:43:03 PM 48.3500 -88.9333 291° West 210 242 3,400 -950 Descending Winnipeg Center
Mon 04:44:03 PM 48.3667 -89.0000 301° West 200 230 2,100 -750 Descending Winnipeg Center
Mon 04:45:03 PM 48.4000 -89.0833 249° West 190 219 1,900 -150 Descending Winnipeg Center
Mon 04:46:03 PM 48.3833 -89.1500 243° Southwest 170 196 1,800 -252 Descending Winnipeg Center
Mon 04:47:02 PM 48.3667 -89.2000 249° West 150 173 1,400 -550 Descending Winnipeg Center
Mon 04:48:03 PM 48.3500 -89.2667 270° West 140 161 700 -397 Descending Winnipeg Center
Mon 04:49:03 PM 48.3500 -89.2833 270° West 70 81 600 -100 Descending Winnipeg Center

Login

Don't have an account? Register now (free) for customized features, flight alerts, and more!